Time;durP1;ratioP1;P1;durP2;ratioP2;P2;SDS_P1;SDS_P2;PMS_P1;PMS_P2;Temp;Humidity;BMP_temperature;BMP_pressure;BME280_temperature;BME280_humidity;BME280_pressure;Samples;Min_cycle;Max_cycle;Signal;HPM_P1;HPM_P2
2021/01/01 00:00:42;;;;;;;7.70;6.72;;;3.00;99.90;;;;;;473163;249;28975;-73
2021/01/01 00:02:43;;;;;;;7.85;6.55;;;3.00;99.90;;;;;;473184;249;27941;-72
2021/01/01 00:04:44;;;;;;;7.57;6.65;;;3.00;99.90;;;;;;473220;249;28005;-73
2021/01/01 00:06:45;;;;;;;8.50;6.55;;;3.00;99.90;;;;;;473201;249;28793;-73
2021/01/01 00:08:47;;;;;;;10.25;7.03;;;3.00;99.90;;;;;;473207;249;27529;-72
2021/01/01 00:10:49;;;;;;;8.43;7.22;;;3.00;99.90;;;;;;473140;249;27536;-72
2021/01/01 00:12:49;;;;;;;8.35;6.95;;;3.00;99.90;;;;;;473109;251;27488;-72
2021/01/01 00:14:50;;;;;;;9.90;7.65;;;3.00;99.90;;;;;;463918;252;27562;-73
2021/01/01 00:16:52;;;;;;;11.10;7.60;;;3.00;99.90;;;;;;463729;255;27576;-71
2021/01/01 00:18:53;;;;;;;8.27;6.95;;;3.00;99.90;;;;;;473081;251;27481;-72
2021/01/01 00:20:54;;;;;;;8.52;7.12;;;3.10;99.90;;;;;;473114;249;27541;-72
2021/01/01 00:22:55;;;;;;;8.68;7.12;;;3.10;99.90;;;;;;473202;249;27544;-72
2021/01/01 00:24:57;;;;;;;8.27;6.90;;;3.00;99.90;;;;;;473263;249;27489;-73
2021/01/01 00:26:58;;;;;;;7.70;6.68;;;3.10;99.90;;;;;;473309;249;27977;-71
2021/01/01 00:28:59;;;;;;;7.82;6.68;;;3.00;99.90;;;;;;473334;249;27956;-73
2021/01/01 00:31:00;;;;;;;9.10;7.72;;;3.10;99.90;;;;;;473327;249;29051;-71
2021/01/01 00:33:02;;;;;;;8.77;7.15;;;3.10;99.90;;;;;;473384;249;27888;-72
2021/01/01 00:35:03;;;;;;;8.68;6.32;;;3.00;99.90;;;;;;473417;249;27576;-73
2021/01/01 00:37:04;;;;;;;8.02;6.18;;;3.00;99.90;;;;;;473383;249;27526;-72
2021/01/01 00:39:05;;;;;;;7.37;6.57;;;3.00;99.90;;;;;;473384;249;27552;-72
2021/01/01 00:41:07;;;;;;;9.70;6.45;;;3.00;99.90;;;;;;473290;249;27481;-73
2021/01/01 00:43:08;;;;;;;7.10;5.85;;;3.10;99.90;;;;;;473304;249;27473;-71
2021/01/01 00:45:09;;;;;;;7.35;5.50;;;3.10;99.90;;;;;;473258;249;27453;-72
2021/01/01 00:47:10;;;;;;;7.90;6.10;;;3.10;99.90;;;;;;473103;249;27543;-72
2021/01/01 00:49:12;;;;;;;6.62;5.20;;;3.00;99.90;;;;;;470594;246;27576;-72
2021/01/01 00:51:13;;;;;;;7.97;5.75;;;3.10;99.90;;;;;;466034;251;27471;-73
2021/01/01 00:53:14;;;;;;;5.68;5.03;;;3.10;99.90;;;;;;467037;249;27584;-72
2021/01/01 00:55:15;;;;;;;7.15;5.07;;;3.00;99.90;;;;;;470248;251;27558;-73
2021/01/01 00:57:17;;;;;;;6.75;5.40;;;3.00;99.90;;;;;;473209;249;28750;-72
2021/01/01 00:59:18;;;;;;;5.60;4.85;;;3.00;99.90;;;;;;470811;246;28038;-73
2021/01/01 01:01:19;;;;;;;7.55;5.32;;;3.10;99.90;;;;;;471975;249;28044;-73
2021/01/01 01:03:20;;;;;;;4.87;4.47;;;3.10;99.90;;;;;;470609;251;27560;-72
2021/01/01 01:05:22;;;;;;;5.82;5.22;;;3.10;99.90;;;;;;467991;249;27600;-72
2021/01/01 01:07:23;;;;;;;5.80;5.05;;;3.00;99.90;;;;;;465270;253;27559;-73
2021/01/01 01:09:24;;;;;;;5.32;4.82;;;3.00;99.90;;;;;;465320;255;27551;-72
2021/01/01 01:11:25;;;;;;;6.12;5.30;;;3.00;99.90;;;;;;466011;251;27487;-73
2021/01/01 01:13:27;;;;;;;6.62;5.40;;;3.10;99.90;;;;;;473218;249;27548;-73
2021/01/01 01:15:28;;;;;;;6.25;5.62;;;3.10;99.90;;;;;;473215;249;27509;-71
2021/01/01 01:17:29;;;;;;;6.82;5.90;;;3.10;99.90;;;;;;473277;249;27484;-73
2021/01/01 01:19:30;;;;;;;6.80;5.53;;;3.00;99.90;;;;;;472606;246;27421;-72
2021/01/01 01:21:32;;;;;;;7.82;5.87;;;3.10;99.90;;;;;;471170;251;27577;-73
2021/01/01 01:23:33;;;;;;;9.07;5.95;;;3.00;99.90;;;;;;467336;249;27586;-73
2021/01/01 01:25:34;;;;;;;6.43;5.62;;;3.00;99.90;;;;;;465348;253;27946;-72
2021/01/01 01:27:35;;;;;;;7.37;5.85;;;3.00;99.90;;;;;;465381;253;27981;-73
2021/01/01 01:29:37;;;;;;;6.80;5.87;;;3.00;99.90;;;;;;469087;251;28910;-72
2021/01/01 01:31:38;;;;;;;6.90;5.65;;;3.10;99.90;;;;;;473215;249;27537;-72
2021/01/01 01:33:39;;;;;;;7.03;5.82;;;3.00;99.90;;;;;;473289;249;27447;-72
2021/01/01 01:35:40;;;;;;;7.00;6.30;;;3.00;99.90;;;;;;473285;249;27426;-71
2021/01/01 01:37:42;;;;;;;6.97;5.93;;;3.00;99.90;;;;;;468253;249;27589;-73
2021/01/01 01:39:43;;;;;;;7.18;5.70;;;3.00;99.90;;;;;;465342;253;27439;-72
2021/01/01 01:41:44;;;;;;;8.60;6.70;;;2.90;99.90;;;;;;465446;253;27518;-72
2021/01/01 01:43:45;;;;;;;7.93;5.12;;;2.80;99.90;;;;;;465476;253;27572;-72
2021/01/01 01:45:47;;;;;;;7.97;5.50;;;2.80;99.90;;;;;;465479;255;27463;-73
2021/01/01 01:47:48;;;;;;;7.50;5.57;;;2.80;99.90;;;;;;465275;255;27554;-73
2021/01/01 01:49:49;;;;;;;8.85;6.47;;;2.90;99.90;;;;;;468939;246;27498;-71
2021/01/01 01:51:50;;;;;;;11.10;6.65;;;2.90;99.90;;;;;;463647;249;27715;-72
2021/01/01 01:53:52;;;;;;;8.20;5.97;;;2.90;99.90;;;;;;456200;259;28659;-73
2021/01/01 01:55:53;;;;;;;6.53;5.20;;;2.90;99.90;;;;;;457827;256;27900;-72
2021/01/01 01:57:54;;;;;;;6.72;5.62;;;2.90;99.90;;;;;;469516;252;28032;-73
2021/01/01 01:59:56;;;;;;;9.40;5.90;;;2.80;99.90;;;;;;471119;250;27457;-72
2021/01/01 02:01:57;;;;;;;8.35;6.15;;;2.80;99.90;;;;;;470829;251;27565;-72
2021/01/01 02:03:58;;;;;;;6.18;4.87;;;2.80;99.90;;;;;;471168;251;27486;-73
2021/01/01 02:05:59;;;;;;;10.05;5.53;;;2.80;99.90;;;;;;466397;251;27489;-72
2021/01/01 02:08:00;;;;;;;7.20;6.10;;;2.80;99.90;;;;;;463344;255;27607;-72
2021/01/01 02:10:02;;;;;;;6.85;5.57;;;2.80;99.90;;;;;;463124;255;27502;-75
2021/01/01 02:12:03;;;;;;;6.97;5.53;;;2.80;99.90;;;;;;463288;255;27605;-72
2021/01/01 02:14:06;;;;;;;7.43;5.65;;;2.80;99.90;;;;;;463334;255;27587;-73
2021/01/01 02:16:05;;;;;;;8.05;5.60;;;2.80;99.90;;;;;;463295;255;27570;-72
2021/01/01 02:18:07;;;;;;;7.60;5.80;;;2.80;99.90;;;;;;463356;255;27579;-73
2021/01/01 02:20:08;;;;;;;5.55;4.70;;;2.80;99.90;;;;;;463442;247;28007;-73
2021/01/01 02:22:09;;;;;;;8.38;5.62;;;2.70;99.90;;;;;;470109;252;28006;-73
2021/01/01 02:24:10;;;;;;;5.80;5.20;;;2.70;99.90;;;;;;470070;251;27980;-72
2021/01/01 02:26:12;;;;;;;8.63;5.30;;;2.70;99.90;;;;;;463337;255;28089;-74
2021/01/01 02:28:13;;;;;;;6.80;5.57;;;2.70;99.90;;;;;;463348;255;27591;-72
2021/01/01 02:30:14;;;;;;;8.90;5.85;;;2.70;99.90;;;;;;471020;252;27543;-74
2021/01/01 02:32:15;;;;;;;8.07;6.05;;;2.70;99.90;;;;;;471194;251;27540;-72
2021/01/01 02:34:17;;;;;;;7.40;5.95;;;2.70;99.90;;;;;;471139;251;27585;-73
2021/01/01 02:36:18;;;;;;;5.47;4.60;;;2.70;99.90;;;;;;471164;251;27537;-73
2021/01/01 02:38:19;;;;;;;7.12;5.40;;;2.70;99.90;;;;;;471182;251;27553;-72
2021/01/01 02:40:20;;;;;;;8.45;5.10;;;2.60;99.90;;;;;;463474;251;27618;-73
2021/01/01 02:42:22;;;;;;;9.43;5.47;;;2.70;99.90;;;;;;463339;255;27472;-71
2021/01/01 02:44:23;;;;;;;6.37;5.40;;;2.70;99.90;;;;;;463335;255;27582;-72
2021/01/01 02:46:24;;;;;;;6.32;5.00;;;2.70;99.90;;;;;;463329;255;27614;-73
2021/01/01 02:48:25;;;;;;;6.97;5.28;;;2.70;99.90;;;;;;463337;255;28078;-72
2021/01/01 02:50:27;;;;;;;6.75;5.10;;;2.70;99.90;;;;;;463307;255;28046;-73
2021/01/01 02:52:28;;;;;;;6.70;5.50;;;2.70;99.90;;;;;;466380;247;27960;-72
2021/01/01 02:54:29;;;;;;;7.12;5.60;;;2.70;99.90;;;;;;463503;255;28150;-72
2021/01/01 02:56:30;;;;;;;6.45;5.20;;;2.70;99.90;;;;;;468842;250;27565;-73
2021/01/01 02:58:32;;;;;;;6.10;5.10;;;2.70;99.90;;;;;;475084;250;27472;-72
2021/01/01 03:00:33;;;;;;;6.78;5.25;;;2.70;99.90;;;;;;475022;250;27459;-73
2021/01/01 03:02:34;;;;;;;10.15;6.25;;;2.70;99.90;;;;;;475004;250;27491;-73
2021/01/01 03:04:35;;;;;;;7.90;5.65;;;2.80;99.90;;;;;;475013;250;27546;-72
2021/01/01 03:06:37;;;;;;;11.30;4.95;;;2.70;99.90;;;;;;474949;250;27547;-73
2021/01/01 03:08:38;;;;;;;9.35;6.05;;;2.70;99.90;;;;;;474927;250;27484;-72
2021/01/01 03:10:39;;;;;;;6.05;5.45;;;2.70;99.90;;;;;;474841;246;27484;-72
2021/01/01 03:12:40;;;;;;;7.50;5.50;;;2.70;99.90;;;;;;474872;250;27508;-72
2021/01/01 03:14:42;;;;;;;7.85;5.35;;;2.70;99.90;;;;;;474891;247;28061;-72
2021/01/01 03:16:43;;;;;;;6.37;5.10;;;2.70;99.90;;;;;;474944;250;28766;-72
2021/01/01 03:18:44;;;;;;;9.13;6.18;;;2.60;99.90;;;;;;474920;250;27983;-72
2021/01/01 03:20:45;;;;;;;8.30;5.18;;;2.60;99.90;;;;;;474891;250;27961;-72
2021/01/01 03:22:47;;;;;;;7.55;5.55;;;2.60;99.90;;;;;;474928;250;27486;-72
2021/01/01 03:24:48;;;;;;;6.55;5.15;;;2.70;99.90;;;;;;474940;250;27560;-73
2021/01/01 03:26:49;;;;;;;6.18;5.00;;;2.50;99.90;;;;;;474911;250;27463;-72
2021/01/01 03:28:50;;;;;;;7.00;5.72;;;2.60;99.90;;;;;;474957;250;27459;-73
2021/01/01 03:30:52;;;;;;;8.27;5.65;;;2.60;99.90;;;;;;474963;250;27542;-73
2021/01/01 03:32:53;;;;;;;10.68;6.20;;;2.50;99.90;;;;;;475012;250;27927;-72
2021/01/01 03:34:54;;;;;;;7.28;5.35;;;2.60;99.90;;;;;;474988;250;27573;-72
2021/01/01 03:36:55;;;;;;;6.12;5.18;;;2.60;99.90;;;;;;475005;250;27551;-72
2021/01/01 03:38:57;;;;;;;8.57;6.15;;;2.60;99.90;;;;;;474996;250;27457;-73
2021/01/01 03:40:58;;;;;;;8.10;5.70;;;2.60;99.90;;;;;;474953;250;27991;-72
2021/01/01 03:42:59;;;;;;;8.88;5.80;;;2.60;99.90;;;;;;475017;250;27990;-73
2021/01/01 03:45:00;;;;;;;6.72;5.30;;;2.60;99.90;;;;;;475012;250;28040;-74
2021/01/01 03:47:02;;;;;;;8.32;5.55;;;2.50;99.90;;;;;;474971;250;27927;-72
2021/01/01 03:49:03;;;;;;;7.78;5.60;;;2.50;99.90;;;;;;474960;250;28132;-72
2021/01/01 03:51:04;;;;;;;7.43;5.93;;;2.50;99.90;;;;;;474971;250;27432;-71
2021/01/01 03:53:05;;;;;;;8.73;6.35;;;2.50;99.90;;;;;;474992;250;27507;-72
2021/01/01 03:55:07;;;;;;;7.78;5.72;;;2.50;99.90;;;;;;474949;250;27531;-74
2021/01/01 03:57:08;;;;;;;11.90;6.75;;;2.50;99.90;;;;;;474981;250;27460;-72
2021/01/01 03:59:09;;;;;;;13.88;6.68;;;2.50;99.90;;;;;;474935;250;27463;-72
2021/01/01 04:01:10;;;;;;;9.50;6.30;;;2.60;99.90;;;;;;474986;250;27524;-72
2021/01/01 04:03:12;;;;;;;11.77;6.60;;;2.60;99.90;;;;;;474992;250;27490;-73
2021/01/01 04:05:13;;;;;;;10.07;7.20;;;2.50;99.90;;;;;;474958;250;27468;-73
2021/01/01 04:07:14;;;;;;;9.85;6.40;;;2.50;99.90;;;;;;474983;250;27936;-72
2021/01/01 04:09:15;;;;;;;12.70;7.12;;;2.50;99.90;;;;;;475011;250;28057;-73
2021/01/01 04:11:17;;;;;;;9.20;6.97;;;2.50;99.90;;;;;;474975;250;27847;-71
2021/01/01 04:13:18;;;;;;;10.05;6.32;;;2.50;99.90;;;;;;475002;250;27481;-72
2021/01/01 04:15:19;;;;;;;7.65;6.28;;;2.50;99.90;;;;;;474987;250;27448;-72
2021/01/01 04:17:20;;;;;;;9.40;6.72;;;2.50;99.90;;;;;;475131;250;27445;-73
2021/01/01 04:19:22;;;;;;;8.95;6.90;;;2.50;99.90;;;;;;475168;246;27491;-73
2021/01/01 04:21:23;;;;;;;8.60;6.75;;;2.50;99.90;;;;;;475130;250;27511;-72
2021/01/01 04:23:24;;;;;;;10.35;6.68;;;2.50;99.90;;;;;;475124;250;27579;-72
2021/01/01 04:25:25;;;;;;;8.15;6.60;;;2.60;99.90;;;;;;475190;250;27552;-72
2021/01/01 04:27:28;;;;;;;10.35;7.45;;;2.50;99.90;;;;;;475181;250;27503;-73
2021/01/01 04:29:29;;;;;;;10.48;7.68;;;2.50;99.90;;;;;;475157;250;27429;-71
2021/01/01 04:31:30;;;;;;;11.20;7.60;;;2.40;99.90;;;;;;475011;250;27578;-72
2021/01/01 04:33:32;;;;;;;10.48;7.60;;;2.40;99.90;;;;;;475064;250;27455;-74
2021/01/01 04:35:33;;;;;;;9.77;6.97;;;2.40;99.90;;;;;;475038;250;27515;-72
2021/01/01 04:37:34;;;;;;;8.98;7.57;;;2.40;99.90;;;;;;475021;250;27467;-73
2021/01/01 04:39:35;;;;;;;11.23;7.80;;;2.40;99.90;;;;;;474963;250;27476;-72
2021/01/01 04:41:37;;;;;;;12.18;7.90;;;2.50;99.90;;;;;;474922;250;28062;-73
2021/01/01 04:43:38;;;;;;;12.57;8.88;;;2.50;99.90;;;;;;474967;250;29058;-73
2021/01/01 04:45:39;;;;;;;10.77;8.07;;;2.50;99.90;;;;;;474935;250;27448;-72
2021/01/01 04:47:40;;;;;;;11.10;8.40;;;2.60;99.90;;;;;;474971;246;27488;-72
2021/01/01 04:49:42;;;;;;;9.20;7.12;;;2.50;99.90;;;;;;475003;250;27511;-72
2021/01/01 04:51:43;;;;;;;9.93;7.68;;;2.50;99.90;;;;;;474924;250;27534;-73
2021/01/01 04:53:44;;;;;;;9.77;7.37;;;2.50;99.90;;;;;;474971;250;27520;-73
2021/01/01 04:55:46;;;;;;;10.95;8.20;;;2.60;99.90;;;;;;474962;250;27475;-72
2021/01/01 04:57:47;;;;;;;12.25;8.32;;;2.60;99.90;;;;;;475016;250;27833;-74
2021/01/01 04:59:48;;;;;;;10.25;8.15;;;2.50;99.90;;;;;;475004;250;27483;-73
2021/01/01 05:01:49;;;;;;;13.65;8.43;;;2.50;99.90;;;;;;474903;250;27967;-71
2021/01/01 05:03:51;;;;;;;10.68;7.80;;;2.50;99.90;;;;;;474888;250;27921;-72
2021/01/01 05:05:52;;;;;;;9.30;7.50;;;2.60;99.90;;;;;;474906;250;27930;-72
2021/01/01 05:07:53;;;;;;;11.35;8.77;;;2.60;99.90;;;;;;474903;250;28145;-72
2021/01/01 05:09:54;;;;;;;13.32;8.98;;;2.60;99.90;;;;;;474922;250;27552;-73
2021/01/01 05:11:56;;;;;;;12.52;8.93;;;2.50;99.90;;;;;;474921;250;27569;-72
2021/01/01 05:13:57;;;;;;;13.10;9.20;;;2.50;99.90;;;;;;474967;250;27467;-73
2021/01/01 05:15:59;;;;;;;12.02;8.60;;;2.60;99.90;;;;;;474961;250;27448;-70
2021/01/01 05:17:59;;;;;;;14.80;9.27;;;2.60;99.90;;;;;;474940;250;27503;-72
2021/01/01 05:20:01;;;;;;;16.25;9.32;;;2.50;99.90;;;;;;474943;250;27540;-72
2021/01/01 05:22:02;;;;;;;13.30;9.70;;;2.50;99.90;;;;;;474928;250;27538;-72
2021/01/01 05:24:03;;;;;;;14.80;10.13;;;2.60;99.90;;;;;;474942;250;27936;-72
2021/01/01 05:26:04;;;;;;;14.87;9.90;;;2.60;99.90;;;;;;474982;250;28030;-73
2021/01/01 05:28:06;;;;;;;14.20;9.98;;;2.50;99.90;;;;;;474975;250;27754;-72
2021/01/01 05:30:07;;;;;;;14.30;10.32;;;2.60;99.90;;;;;;474911;250;27468;-72
2021/01/01 05:32:08;;;;;;;14.80;10.25;;;2.60;99.90;;;;;;474955;250;27549;-73
2021/01/01 05:34:09;;;;;;;17.00;11.12;;;2.60;99.90;;;;;;474973;250;27528;-72
2021/01/01 05:36:11;;;;;;;17.52;12.25;;;2.60;99.90;;;;;;474984;250;27535;-73
2021/01/01 05:38:12;;;;;;;19.20;12.88;;;2.50;99.90;;;;;;474972;250;27504;-72
2021/01/01 05:40:13;;;;;;;16.80;11.70;;;2.50;99.90;;;;;;474900;250;27920;-73
2021/01/01 05:42:14;;;;;;;16.55;11.93;;;2.60;99.90;;;;;;475084;250;28939;-73
2021/01/01 05:44:16;;;;;;;18.98;12.25;;;2.60;99.90;;;;;;475121;250;27469;-72
2021/01/01 05:46:17;;;;;;;17.65;12.20;;;2.60;99.90;;;;;;475130;250;27487;-73
2021/01/01 05:48:18;;;;;;;20.58;13.10;;;2.60;99.90;;;;;;475146;250;27436;-72
2021/01/01 05:50:19;;;;;;;20.52;12.00;;;2.60;99.90;;;;;;475091;250;27566;-73
2021/01/01 05:52:25;;;;;;;18.95;11.85;;;2.60;99.90;;;;;;475142;250;27540;-74
2021/01/01 05:54:25;;;;;;;20.40;12.88;;;2.60;99.90;;;;;;475036;250;27469;-72
2021/01/01 05:56:26;;;;;;;20.17;13.00;;;2.60;99.90;;;;;;475121;250;27471;-72
2021/01/01 05:58:27;;;;;;;19.77;13.85;;;2.60;99.90;;;;;;475099;250;27459;-73
2021/01/01 06:00:28;;;;;;;20.05;12.82;;;2.60;99.90;;;;;;475002;250;27503;-72
2021/01/01 06:02:30;;;;;;;19.48;13.10;;;2.60;99.90;;;;;;475028;250;27457;-72
2021/01/01 06:04:31;;;;;;;16.25;11.10;;;2.60;99.90;;;;;;474976;250;28836;-72
2021/01/01 06:06:35;;;;;;;16.40;11.30;;;2.60;99.90;;;;;;475000;250;27930;-72
2021/01/01 06:08:33;;;;;;;18.55;12.55;;;2.60;99.90;;;;;;474823;250;27926;-74
2021/01/01 06:10:35;;;;;;;18.12;12.37;;;2.60;99.90;;;;;;474953;250;27427;-72
2021/01/01 06:12:36;;;;;;;18.77;11.88;;;2.60;99.90;;;;;;474967;250;27467;-72
2021/01/01 06:14:37;;;;;;;17.08;11.40;;;2.60;99.90;;;;;;474955;250;27563;-73
2021/01/01 06:16:38;;;;;;;18.27;12.10;;;2.50;99.90;;;;;;474958;250;27463;-73
2021/01/01 06:18:40;;;;;;;17.33;12.50;;;2.50;99.90;;;;;;474986;250;27484;-73
2021/01/01 06:20:41;;;;;;;16.48;11.60;;;2.60;99.90;;;;;;474963;250;27971;-73
2021/01/01 06:22:42;;;;;;;16.05;11.10;;;2.60;99.90;;;;;;474969;250;27922;-72
2021/01/01 06:24:43;;;;;;;18.55;12.63;;;2.60;99.90;;;;;;474953;250;27590;-73
2021/01/01 06:26:45;;;;;;;16.02;10.88;;;2.50;99.90;;;;;;474965;250;27464;-72
2021/01/01 06:28:46;;;;;;;16.02;11.23;;;2.60;99.90;;;;;;474963;250;27547;-73
2021/01/01 06:30:47;;;;;;;13.98;10.45;;;2.60;99.90;;;;;;474928;250;27479;-73
2021/01/01 06:32:48;;;;;;;16.73;12.05;;;2.70;99.90;;;;;;474965;250;27531;-73
2021/01/01 06:34:50;;;;;;;15.48;11.52;;;2.60;99.90;;;;;;474959;246;27455;-72
2021/01/01 06:36:51;;;;;;;16.10;11.18;;;2.70;99.90;;;;;;474939;250;28755;-72
2021/01/01 06:38:52;;;;;;;16.70;11.52;;;2.70;99.90;;;;;;474993;250;28662;-72
2021/01/01 06:40:53;;;;;;;18.90;12.60;;;2.70;99.90;;;;;;474954;250;27468;-73
2021/01/01 06:42:55;;;;;;;17.17;11.57;;;2.70;99.90;;;;;;474964;250;27464;-73
2021/01/01 06:44:56;;;;;;;17.70;11.70;;;2.70;99.90;;;;;;474962;250;27455;-71
2021/01/01 06:46:57;;;;;;;18.08;12.63;;;2.70;99.90;;;;;;474907;250;27523;-72
2021/01/01 06:48:59;;;;;;;17.12;11.18;;;2.80;99.90;;;;;;474982;250;27436;-71
2021/01/01 06:51:00;;;;;;;14.73;10.85;;;2.60;99.90;;;;;;474952;250;28014;-73
2021/01/01 06:53:01;;;;;;;15.10;10.85;;;2.70;99.90;;;;;;474966;250;28045;-72
2021/01/01 06:55:02;;;;;;;15.63;11.27;;;2.70;99.90;;;;;;474974;250;27992;-72
2021/01/01 06:57:04;;;;;;;18.27;12.27;;;2.70;99.90;;;;;;475019;250;27461;-72
2021/01/01 06:59:05;;;;;;;16.23;11.25;;;2.70;99.90;;;;;;474998;250;27513;-73
2021/01/01 07:01:06;;;;;;;17.17;11.32;;;2.70;99.90;;;;;;474934;246;27480;-73
2021/01/01 07:03:07;;;;;;;14.40;11.05;;;2.70;99.90;;;;;;475014;250;27456;-72
2021/01/01 07:05:09;;;;;;;18.12;12.65;;;2.70;99.90;;;;;;475013;250;27420;-72
2021/01/01 07:07:10;;;;;;;17.27;11.73;;;2.80;99.90;;;;;;475172;250;27916;-72
2021/01/01 07:09:11;;;;;;;16.48;11.12;;;2.70;99.90;;;;;;475151;250;27896;-72
2021/01/01 07:11:12;;;;;;;15.23;10.90;;;2.70;99.90;;;;;;475142;250;27468;-71
2021/01/01 07:13:14;;;;;;;17.65;12.40;;;2.80;99.90;;;;;;475183;246;27547;-75
2021/01/01 07:15:15;;;;;;;15.55;10.80;;;2.70;99.90;;;;;;475183;250;27512;-72
2021/01/01 07:17:16;;;;;;;16.55;11.80;;;2.80;99.90;;;;;;475177;250;27460;-73
2021/01/01 07:19:17;;;;;;;16.90;12.13;;;2.70;99.90;;;;;;475149;250;27425;-72
2021/01/01 07:21:19;;;;;;;19.65;12.80;;;2.80;99.90;;;;;;475031;250;27539;-73
2021/01/01 07:23:20;;;;;;;18.48;12.00;;;2.80;99.90;;;;;;475066;250;27924;-74
2021/01/01 07:25:21;;;;;;;21.30;12.63;;;2.70;99.90;;;;;;475004;250;28991;-70
2021/01/01 07:27:22;;;;;;;18.20;11.40;;;2.70;99.90;;;;;;474986;250;27559;-73
2021/01/01 07:29:24;;;;;;;14.95;10.65;;;2.70;99.90;;;;;;474991;250;27459;-72
2021/01/01 07:31:25;;;;;;;14.75;9.90;;;2.80;99.90;;;;;;474919;250;27452;-72
2021/01/01 07:33:26;;;;;;;15.20;10.77;;;2.70;99.90;;;;;;474927;250;27468;-73
2021/01/01 07:35:27;;;;;;;13.82;9.88;;;2.70;99.90;;;;;;474970;250;27462;-72
2021/01/01 07:37:29;;;;;;;15.85;9.65;;;2.90;99.90;;;;;;474975;250;27463;-74
2021/01/01 07:39:30;;;;;;;17.52;11.23;;;2.80;99.90;;;;;;474982;246;28036;-73
2021/01/01 07:41:31;;;;;;;16.80;11.18;;;2.80;99.90;;;;;;474916;250;29157;-71
2021/01/01 07:43:32;;;;;;;14.70;10.43;;;2.70;99.90;;;;;;474990;250;27480;-73
2021/01/01 07:45:34;;;;;;;15.60;10.95;;;2.70;99.90;;;;;;474964;250;27465;-72
2021/01/01 07:47:35;;;;;;;13.93;9.80;;;2.70;99.90;;;;;;474968;250;27490;-73
2021/01/01 07:49:36;;;;;;;19.00;12.10;;;2.70;99.90;;;;;;474958;250;27495;-73
2021/01/01 07:51:39;;;;;;;15.48;10.98;;;2.80;99.90;;;;;;474820;250;27555;-73
2021/01/01 07:53:39;;;;;;;15.68;11.07;;;2.80;99.90;;;;;;475101;250;27529;-72
2021/01/01 07:55:40;;;;;;;17.20;11.57;;;2.70;99.90;;;;;;475171;250;28330;-72
2021/01/01 07:57:41;;;;;;;17.12;12.05;;;2.80;99.90;;;;;;475148;250;29091;-73
2021/01/01 07:59:42;;;;;;;14.85;11.07;;;2.80;99.90;;;;;;474621;249;27512;-72
2021/01/01 08:01:44;;;;;;;18.42;11.70;;;2.80;99.90;;;;;;473434;250;27580;-73
2021/01/01 08:03:45;;;;;;;18.87;13.00;;;2.80;99.90;;;;;;473483;251;27547;-73
2021/01/01 08:05:46;;;;;;;16.30;10.80;;;2.90;99.90;;;;;;473289;250;27939;-75
2021/01/01 08:07:48;;;;;;;17.17;12.02;;;2.80;99.90;;;;;;472959;251;27678;-73
2021/01/01 08:09:49;;;;;;;13.93;10.70;;;2.90;99.90;;;;;;473254;250;27592;-74
2021/01/01 08:11:50;;;;;;;16.58;11.48;;;2.90;99.90;;;;;;473216;250;28093;-75
2021/01/01 08:13:51;;;;;;;18.30;12.48;;;2.90;99.90;;;;;;473301;250;28027;-74
2021/01/01 08:15:53;;;;;;;17.80;11.80;;;2.90;99.90;;;;;;473326;250;27557;-74
2021/01/01 08:17:54;;;;;;;18.87;13.48;;;2.80;99.90;;;;;;473345;250;27531;-73
2021/01/01 08:19:55;;;;;;;18.12;12.73;;;2.80;99.90;;;;;;473405;250;27549;-74
2021/01/01 08:21:56;;;;;;;19.25;12.77;;;2.80;99.90;;;;;;473431;250;27568;-73
2021/01/01 08:23:58;;;;;;;20.45;13.18;;;2.80;99.90;;;;;;473191;250;27571;-73
2021/01/01 08:25:59;;;;;;;20.17;13.10;;;2.80;99.90;;;;;;473420;249;27571;-74
2021/01/01 08:28:00;;;;;;;20.23;13.45;;;2.80;99.90;;;;;;473186;251;28122;-76
2021/01/01 08:30:01;;;;;;;18.27;11.90;;;2.80;99.90;;;;;;473353;249;28174;-78
2021/01/01 08:32:03;;;;;;;18.08;12.50;;;2.80;99.90;;;;;;473358;251;27574;-73
2021/01/01 08:34:04;;;;;;;15.75;12.37;;;2.70;99.90;;;;;;473414;251;27540;-73
2021/01/01 08:36:05;;;;;;;17.55;12.23;;;2.80;99.90;;;;;;473406;251;27557;-75
2021/01/01 08:38:06;;;;;;;16.25;11.88;;;2.80;99.90;;;;;;473392;251;27928;-72
2021/01/01 08:40:08;;;;;;;20.10;13.07;;;2.80;99.90;;;;;;473321;251;27666;-72
2021/01/01 08:42:09;;;;;;;17.23;11.50;;;2.80;99.90;;;;;;473237;251;28807;-75
2021/01/01 08:44:10;;;;;;;19.45;13.43;;;2.70;99.90;;;;;;474648;245;27962;-75
2021/01/01 08:46:11;;;;;;;18.75;11.85;;;2.70;99.90;;;;;;477478;245;27617;-74
2021/01/01 08:48:13;;;;;;;18.10;12.75;;;2.80;99.90;;;;;;482337;246;27513;-72
2021/01/01 08:50:14;;;;;;;16.17;11.55;;;2.80;99.90;;;;;;482206;246;28015;-72
2021/01/01 08:52:15;;;;;;;15.60;11.18;;;2.90;99.90;;;;;;482271;246;28017;-72
2021/01/01 08:54:16;;;;;;;18.55;12.85;;;2.80;99.90;;;;;;482323;246;27431;-71
2021/01/01 08:56:18;;;;;;;16.62;11.50;;;2.90;99.90;;;;;;482365;246;27452;-74
2021/01/01 08:58:19;;;;;;;15.15;11.23;;;2.90;99.90;;;;;;482259;246;27453;-74
2021/01/01 09:00:20;;;;;;;15.00;10.85;;;2.90;99.90;;;;;;481997;246;27459;-73
2021/01/01 09:02:22;;;;;;;16.87;11.20;;;2.80;99.90;;;;;;482163;246;27437;-71
2021/01/01 09:04:23;;;;;;;20.45;13.85;;;2.80;99.90;;;;;;482295;246;27428;-76
2021/01/01 09:06:24;;;;;;;20.60;13.93;;;2.80;99.90;;;;;;482323;246;27912;-76
2021/01/01 09:08:25;;;;;;;20.33;13.43;;;2.90;99.90;;;;;;482371;246;29077;-75
2021/01/01 09:10:27;;;;;;;18.80;13.13;;;2.90;99.90;;;;;;482307;246;27448;-72
2021/01/01 09:12:28;;;;;;;16.62;12.05;;;2.90;99.90;;;;;;482377;246;27444;-73
2021/01/01 09:14:29;;;;;;;19.15;12.27;;;3.00;99.90;;;;;;482284;246;27924;-73
2021/01/01 09:16:30;;;;;;;18.67;12.10;;;3.00;99.90;;;;;;482342;246;27930;-74
2021/01/01 09:18:32;;;;;;;20.05;12.52;;;3.00;99.90;;;;;;482364;246;27536;-74
2021/01/01 09:20:33;;;;;;;21.50;12.60;;;3.00;99.90;;;;;;478680;246;27637;-72
2021/01/01 09:22:34;;;;;;;24.42;15.15;;;3.10;99.90;;;;;;472997;251;27549;-74
2021/01/01 09:24:35;;;;;;;22.23;14.45;;;3.10;99.90;;;;;;473121;250;27545;-76
2021/01/01 09:26:37;;;;;;;23.87;14.07;;;3.10;99.90;;;;;;472895;248;27574;-74
2021/01/01 09:28:38;;;;;;;22.08;14.82;;;3.10;99.90;;;;;;473657;250;27592;-76
2021/01/01 09:30:39;;;;;;;23.50;14.40;;;3.10;99.90;;;;;;474026;249;28034;-74
2021/01/01 09:32:40;;;;;;;21.60;13.23;;;3.10;99.90;;;;;;473296;251;28118;-73
2021/01/01 09:34:42;;;;;;;24.05;15.18;;;3.10;99.90;;;;;;473343;251;27569;-74
2021/01/01 09:36:43;;;;;;;25.15;15.25;;;3.20;99.90;;;;;;473386;251;27524;-74
2021/01/01 09:38:44;;;;;;;20.25;13.60;;;3.20;99.90;;;;;;473327;251;27654;-74
2021/01/01 09:40:45;;;;;;;27.30;14.32;;;3.20;99.90;;;;;;473354;251;27672;-75
2021/01/01 09:42:47;;;;;;;25.95;16.20;;;3.20;99.90;;;;;;473857;245;27532;-73
2021/01/01 09:44:48;;;;;;;24.58;14.52;;;3.20;99.90;;;;;;482366;246;27445;-75
2021/01/01 09:46:49;;;;;;;24.65;15.00;;;3.20;99.90;;;;;;482400;246;27956;-73
2021/01/01 09:48:50;;;;;;;24.83;14.87;;;3.30;99.90;;;;;;482372;246;27904;-76
2021/01/01 09:50:52;;;;;;;23.50;15.20;;;3.30;99.90;;;;;;482297;246;27462;-76
2021/01/01 09:52:53;;;;;;;23.40;14.70;;;3.30;99.90;;;;;;482444;246;27507;-75
2021/01/01 09:54:54;;;;;;;25.85;15.70;;;3.30;99.90;;;;;;482383;246;27436;-76
2021/01/01 09:56:58;;;;;;;20.42;13.82;;;3.30;99.90;;;;;;482335;246;27408;-75
2021/01/01 09:58:57;;;;;;;24.75;14.00;;;3.30;99.90;;;;;;481973;246;27461;-74
2021/01/01 10:00:58;;;;;;;23.10;13.45;;;3.40;99.90;;;;;;482348;246;28174;-77
2021/01/01 10:02:59;;;;;;;21.80;14.63;;;3.40;99.90;;;;;;482412;246;27859;-74
2021/01/01 10:05:00;;;;;;;24.45;15.15;;;3.50;99.90;;;;;;482500;246;27531;-75
2021/01/01 10:07:02;;;;;;;22.27;13.73;;;3.50;99.90;;;;;;479270;246;27417;-75
2021/01/01 10:09:03;;;;;;;21.65;14.40;;;3.50;99.90;;;;;;474931;250;27542;-75
2021/01/01 10:11:04;;;;;;;24.95;16.00;;;3.50;99.90;;;;;;474885;250;28792;-75
2021/01/01 10:13:06;;;;;;;22.83;14.25;;;3.60;99.90;;;;;;474938;250;27921;-77
2021/01/01 10:15:07;;;;;;;20.55;14.07;;;3.60;99.90;;;;;;474905;250;27559;-75
2021/01/01 10:17:08;;;;;;;20.35;13.23;;;3.60;99.90;;;;;;474934;250;27442;-73
2021/01/01 10:19:09;;;;;;;22.25;13.55;;;3.60;99.90;;;;;;474944;250;27462;-73
2021/01/01 10:21:13;;;;;;;20.20;13.30;;;3.60;99.90;;;;;;474892;250;27945;-77
2021/01/01 10:23:12;;;;;;;22.50;13.50;;;3.60;99.90;;;;;;474918;250;27441;-75
2021/01/01 10:25:13;;;;;;;20.45;13.10;;;3.60;99.90;;;;;;474943;250;27480;-76
2021/01/01 10:27:14;;;;;;;19.55;12.75;;;3.60;99.90;;;;;;476795;249;27890;-78
2021/01/01 10:29:16;;;;;;;18.50;12.65;;;3.60;99.90;;;;;;477069;249;27554;-75